Hoegh Transporter — LAKO7 — position and weather

sailwx.info

Track history (hours):
 
Tides and Currents Weather Stations Pressure Air Temp Water Temp Dewpoint Dewpoint Depression Visibility Wind Speed Wind Dir Waves Ship Positions

Hoegh Transporter

Last reported at 2017-Jan-16 14:32 UTC. Time now 2017-Jan-19 00:20 UTC.
Position N 01°15' E 104°02'.

Length 199 m; draft 7.9 m.

Type: Cargo ship. MMSI: 257712000.

Date/timePositionNaut miles runAvg speedWind from/ knotsBaromVisibWave heightAir tempDewpointWater temp
2017-Jan-16 14:32N 01°15' E 104°02'8 2.0
2017-Jan-16 10:24N 01°15' E 103°53'0 0.0
2017-Jan-16 08:24N 01°15' E 103°53'0 0.1
2017-Jan-16 07:29N 01°15' E 103°54'0 0.1
2017-Jan-16 06:28N 01°15' E 103°53'0 0.0
2017-Jan-16 05:32N 01°15' E 103°53'0 0.1
2017-Jan-16 04:22N 01°15' E 103°53'0 0.0
2017-Jan-16 03:33N 01°15' E 103°53'0 0.0
2017-Jan-16 02:23N 01°15' E 103°53'0 0.0
2017-Jan-16 01:26N 01°15' E 103°53'0 0.0
2017-Jan-16 00:33N 01°15' E 103°53'4 4.0
2017-Jan-15 23:33N 01°12' E 103°51'7 1.7
2017-Jan-15 19:16N 01°17' E 103°45'0 0.0
2017-Jan-15 18:19N 01°17' E 103°45'0 0.0
2017-Jan-15 17:28N 01°17' E 103°45'0 0.0
2017-Jan-15 16:33N 01°17' E 103°45'1 0.8
2017-Jan-15 15:32N 01°17' E 103°45'  
Track history (hours):
 
Tides and Currents Weather Stations Pressure Air Temp Water Temp Dewpoint Dewpoint Depression Visibility Wind Speed Wind Dir Waves Ship Positions

Hoegh Transporter

Last reported at 2017-Jan-16 14:32 UTC. Time now 2017-Jan-19 00:20 UTC.
Position N 01°15' E 104°02'.

Length 199 m; draft 7.9 m.

Type: Cargo ship. MMSI: 257712000.

Date/timePositionNaut miles runAvg speedWind from/ knotsBaromVisibWave heightAir tempDewpointWater temp
2017-Jan-16 14:32N 01°15' E 104°02'8 2.0
2017-Jan-16 10:24N 01°15' E 103°53'0 0.0
2017-Jan-16 08:24N 01°15' E 103°53'0 0.1
2017-Jan-16 07:29N 01°15' E 103°54'0 0.1
2017-Jan-16 06:28N 01°15' E 103°53'0 0.0
2017-Jan-16 05:32N 01°15' E 103°53'0 0.1
2017-Jan-16 04:22N 01°15' E 103°53'0 0.0
2017-Jan-16 03:33N 01°15' E 103°53'0 0.0
2017-Jan-16 02:23N 01°15' E 103°53'0 0.0
2017-Jan-16 01:26N 01°15' E 103°53'0 0.0
2017-Jan-16 00:33N 01°15' E 103°53'4 4.0
2017-Jan-15 23:33N 01°12' E 103°51'7 1.7
2017-Jan-15 19:16N 01°17' E 103°45'0 0.0
2017-Jan-15 18:19N 01°17' E 103°45'0 0.0
2017-Jan-15 17:28N 01°17' E 103°45'0 0.0
2017-Jan-15 16:33N 01°17' E 103°45'1 0.8
2017-Jan-15 15:32N 01°17' E 103°45'  

Dump ship's entire track history